Last 24 Hours

Pinyon

10 Minute Data | America/Los_Angeles
as of 8/30/26 10:52 PM PDT
Date & Time Temp (°F) Dew Pt (°F) RH (%) Wind Spd (mph) Wind Dir (°) Wind Gust (mph) Wind Gst Dir (°) Daily Max Temp (°F) Daily Min Temp (°F)
8/30/26 - 2250 73.1 44.5 36 20.6 NNW | 343 28.0 NNW | 340 88.0 71.4
8/30/26 - 2240 73.0 43.4 34 20.1 NNW | 342 27.2 NNW | 341 88.0 71.4
8/30/26 - 2230 73.1 44.3 36 21.7 NNW | 348 30.2 N | 354 88.0 71.4
8/30/26 - 2220 73.0 45.0 37 22.1 NNW | 346 31.6 N | 352 88.0 71.4
8/30/26 - 2210 73.2 44.1 35 22.7 NNW | 346 29.1 N | 353 88.0 71.4
8/30/26 - 2200 73.1 43.0 34 22.2 NNW | 344 30.7 NNW | 346 88.0 71.4
8/30/26 - 2150 73.0 41.7 32 21.0 NNW | 342 27.8 NNW | 341 88.0 71.4
8/30/26 - 2140 73.1 40.0 30 20.5 NNW | 340 26.4 NNW | 332 88.0 71.4
8/30/26 - 2130 73.2 39.1 29 19.8 NNW | 336 26.2 NNW | 345 88.0 71.4
8/30/26 - 2120 73.6 39.8 29 19.9 NNW | 336 26.0 NNW | 328 88.0 71.4
8/30/26 - 2110 73.9 39.7 29 20.5 NNW | 335 26.1 NNW | 338 88.0 71.4
8/30/26 - 2100 74.0 38.7 28 21.3 NNW | 335 27.0 NNW | 347 88.0 71.4
8/30/26 - 2050 74.1 39.2 28 22.0 NNW | 338 27.7 NNW | 329 88.0 71.4
8/30/26 - 2040 74.2 40.0 29 21.5 NNW | 339 27.2 NNW | 328 88.0 71.4
8/30/26 - 2030 74.2 40.1 29 22.0 NNW | 340 29.7 NNW | 344 88.0 71.4
8/30/26 - 2020 74.6 40.1 29 21.4 NNW | 342 29.7 NNW | 340 88.0 71.4
8/30/26 - 2010 74.9 39.9 28 20.5 NNW | 341 27.2 NNW | 343 88.0 71.4
8/30/26 - 2000 75.3 38.9 27 19.8 NNW | 336 26.8 NNW | 329 88.0 71.4
8/30/26 - 1950 75.5 39.9 28 17.7 NNW | 331 23.8 NNW | 339 88.0 71.4
8/30/26 - 1940 75.9 40.6 28 16.0 NNW | 328 22.9 NNW | 330 88.0 71.4
8/30/26 - 1930 76.3 41.3 28 14.9 NW | 323 23.0 NW | 318 88.0 71.4
8/30/26 - 1920 76.9 42.0 29 14.2 NW | 322 20.7 NW | 321 88.0 71.4
8/30/26 - 1910 77.5 42.2 28 13.2 NW | 318 22.3 NW | 316 88.0 71.4
8/30/26 - 1900 78.5 41.8 27 13.4 NW | 319 23.2 NW | 310 88.0 71.4
8/30/26 - 1850 79.3 42.5 27 12.8 NW | 317 21.0 NW | 314 88.0 71.4
8/30/26 - 1840 80.1 43.2 27 14.5 NW | 325 22.5 NNW | 332 88.0 71.4
8/30/26 - 1830 81.1 43.4 26 13.6 NNW | 332 19.4 N | 6 88.0 71.4
8/30/26 - 1820 81.4 43.4 26 14.5 NNW | 339 20.6 NNW | 339 88.0 71.4
8/30/26 - 1810 82.2 44.6 27 15.4 NNW | 337 24.7 NNW | 336 88.0 71.4
8/30/26 - 1800 82.9 45.1 27 14.0 NNW | 346 21.9 NNW | 340 88.0 71.4
8/30/26 - 1750 82.9 45.8 27 17.0 NNW | 347 25.4 NNW | 347 88.0 71.4
8/30/26 - 1740 84.1 46.6 27 15.4 N | 355 24.1 N | 8 88.0 71.4
8/30/26 - 1730 84.5 46.8 27 14.4 NNW | 344 23.1 NNW | 337 88.0 71.4
8/30/26 - 1720 84.3 47.0 27 15.4 N | 350 24.0 NNW | 342 88.0 71.4
8/30/26 - 1710 84.9 47.3 27 15.8 N | 350 23.8 NNW | 342 88.0 71.4
8/30/26 - 1700 84.9 47.2 27 14.4 NNW | 347 24.0 NNW | 335 88.0 71.4
8/30/26 - 1650 85.2 47.1 27 15.0 NNW | 335 25.6 NNW | 331 88.0 71.4
8/30/26 - 1640 85.5 47.3 27 15.3 NNW | 332 24.2 NNW | 332 88.0 71.4
8/30/26 - 1630 86.0 48.0 27 14.8 NNW | 328 23.8 NNW | 330 88.0 71.4
8/30/26 - 1620 86.8 48.5 27 12.4 NNW | 327 20.0 NNW | 338 88.0 71.4
8/30/26 - 1610 86.3 48.8 27 12.5 NW | 322 22.3 NNW | 334 88.0 71.4
8/30/26 - 1600 86.5 48.6 27 10.6 NNW | 341 18.0 N | 349 88.0 71.4
8/30/26 - 1550 86.7 49.0 27 9.0 NNW | 337 20.4 N | 354 88.0 71.4
8/30/26 - 1540 87.0 49.6 28 8.6 NNW | 334 19.9 NNW | 340 88.0 71.4
8/30/26 - 1530 86.7 50.2 28 9.2 N | 357 17.3 N | 354 88.0 71.4
8/30/26 - 1520 85.3 54.4 35 2.5 ESE | 114 8.1 E | 83 86.4 71.4
8/30/26 - 1510 84.7 54.1 35 2.8 ESE | 121 7.7 E | 99 86.4 71.4
8/30/26 - 1500 83.6 54.1 36 5.2 S | 169 10.7 SSE | 166 86.4 71.4
8/30/26 - 1450 84.3 53.9 35 6.2 SE | 132 13.0 SSE | 162 86.4 71.4
8/30/26 - 1440 83.8 53.5 35 7.7 SE | 146 15.2 ESE | 119 86.4 71.4
8/30/26 - 1430 84.0 53.5 35 5.9 SE | 132 13.4 SE | 146 86.4 71.4
8/30/26 - 1420 84.0 53.2 35 6.7 SE | 133 15.6 SE | 128 86.4 71.4
8/30/26 - 1410 84.0 52.6 34 4.9 SSE | 163 11.1 SSE | 150 86.4 71.4
8/30/26 - 1400 83.7 52.1 34 7.6 SE | 129 13.2 SE | 130 86.4 71.4
8/30/26 - 1350 83.7 52.1 34 7.9 SE | 138 15.3 SSE | 167 86.4 71.4
8/30/26 - 1340 82.9 52.2 35 8.2 E | 83 13.9 SE | 130 86.4 71.4
8/30/26 - 1330 83.2 52.2 34 5.9 ESE | 115 12.2 SE | 133 86.4 71.4
8/30/26 - 1320 83.8 52.4 34 5.8 ESE | 118 12.1 E | 91 86.4 71.4
8/30/26 - 1310 83.0 52.6 35 6.3 SSE | 151 14.8 SSE | 147 86.4 71.4
8/30/26 - 1300 82.5 52.9 36 7.9 SE | 135 15.6 SSE | 156 86.4 71.4
8/30/26 - 1250 82.6 52.8 36 5.8 ESE | 110 13.2 SE | 128 86.4 71.4
8/30/26 - 1240 82.8 52.6 35 8.0 ESE | 120 14.4 ESE | 121 86.4 71.4
8/30/26 - 1230 83.1 52.7 35 5.4 E | 96 11.6 ESE | 120 86.4 71.4
8/30/26 - 1220 84.2 49.8 30 4.7 ESE | 118 11.8 SE | 133 86.4 71.4
8/30/26 - 1210 83.0 51.1 33 5.2 SE | 142 12.4 SSE | 154 86.4 71.4
8/30/26 - 1200 85.2 47.5 27 6.2 SSW | 212 13.3 SSE | 161 86.4 71.4
8/30/26 - 1150 85.5 45.4 25 6.1 NNW | 348 14.4 NNW | 332 86.4 71.4
8/30/26 - 1140 84.8 44.8 25 6.2 N | 356 15.2 N | 0 86.3 71.4
8/30/26 - 1130 85.5 44.9 24 5.8 NW | 324 14.1 NNW | 327 86.3 71.4
8/30/26 - 1120 85.5 45.0 24 7.1 NW | 310 17.2 NW | 318 86.2 71.4
8/30/26 - 1110 85.2 45.1 25 7.8 NW | 318 15.9 NNW | 341 86.1 71.4
8/30/26 - 1100 83.9 44.8 25 9.7 NW | 325 18.3 NW | 320 85.1 71.4
8/30/26 - 1050 84.1 44.9 25 11.1 NNW | 333 16.8 NNW | 337 85.1 71.4
8/30/26 - 1040 84.0 44.9 25 9.3 NW | 323 16.2 NW | 326 85.1 71.4
8/30/26 - 1030 84.3 44.8 25 10.0 NW | 321 17.5 NW | 316 85.1 71.4
8/30/26 - 1020 83.1 44.5 26 8.8 NW | 324 18.3 NW | 320 84.3 71.4
8/30/26 - 1010 82.6 44.4 26 9.8 NW | 323 18.1 NNW | 340 83.5 71.4
8/30/26 - 1000 82.5 44.4 26 11.4 NNW | 328 20.2 WNW | 301 83.1 71.4
8/30/26 - 0950 81.9 44.3 27 8.8 NNW | 334 13.8 NW | 319 82.4 71.4
8/30/26 - 0940 81.3 43.7 27 11.8 NNW | 327 18.9 NNW | 339 81.8 71.4
8/30/26 - 0930 81.1 43.3 26 12.7 NW | 326 18.3 NW | 320 81.4 71.4
8/30/26 - 0920 80.4 43.6 27 12.1 NNW | 330 18.2 N | 351 80.9 71.4
8/30/26 - 0910 79.8 44.3 29 10.6 NNW | 335 17.1 NNW | 342 80.4 71.4
8/30/26 - 0900 78.8 44.3 29 10.8 NNW | 333 16.4 NNW | 331 79.6 71.4
8/30/26 - 0850 78.1 44.2 30 12.1 NNW | 333 18.3 NNW | 340 78.3 71.4
8/30/26 - 0840 77.5 44.4 31 12.4 NNW | 333 17.1 NNW | 341 78.2 71.4
8/30/26 - 0830 76.9 44.6 32 12.1 NNW | 330 19.1 NNW | 338 77.5 71.4
8/30/26 - 0820 76.1 44.7 33 13.3 NNW | 328 18.7 NNW | 335 76.3 71.4
8/30/26 - 0810 75.6 44.5 33 13.8 NNW | 332 19.7 NNW | 333 75.9 71.4
8/30/26 - 0800 75.1 44.6 34 13.5 NNW | 334 18.8 NNW | 330 75.3 71.4
8/30/26 - 0750 74.7 44.8 34 13.5 NNW | 331 19.0 NNW | 329 74.9 71.4
8/30/26 - 0740 74.3 44.7 35 14.2 NNW | 330 20.5 NNW | 337 74.5 71.4
8/30/26 - 0730 73.9 45.0 36 15.0 NNW | 331 22.0 NNW | 340 74.3 71.4
8/30/26 - 0720 73.4 45.2 36 14.8 NNW | 337 20.1 N | 353 74.3 71.4
8/30/26 - 0710 73.3 45.2 37 15.8 NNW | 340 23.2 NNW | 334 74.3 71.4
8/30/26 - 0700 73.2 45.4 37 16.6 NNW | 348 23.4 NNW | 347 74.3 71.4
8/30/26 - 0650 72.8 45.7 38 16.4 NNW | 348 21.7 NNW | 348 74.3 71.4
8/30/26 - 0640 72.8 46.1 39 15.2 NNW | 344 20.2 N | 7 74.3 71.4
8/30/26 - 0630 72.7 46.5 39 14.6 NNW | 334 19.9 NNW | 339 74.3 71.4
8/30/26 - 0620 72.7 46.5 39 14.5 NNW | 327 19.8 NNW | 327 74.3 71.4
8/30/26 - 0610 72.8 46.8 39 15.1 NNW | 327 20.4 NNW | 332 74.3 71.4
8/30/26 - 0600 72.3 47.0 40 14.8 NW | 325 21.5 NNW | 334 74.3 71.4
8/30/26 - 0550 72.2 47.4 41 14.6 NW | 325 20.7 NW | 326 74.3 71.4
8/30/26 - 0540 72.2 47.7 42 14.7 NNW | 327 21.1 NW | 321 74.3 71.4
8/30/26 - 0530 72.0 48.1 43 16.8 NNW | 327 23.9 NNW | 334 74.3 71.4
8/30/26 - 0520 71.7 48.5 44 16.5 NNW | 334 21.5 NNW | 333 74.3 71.4
8/30/26 - 0510 71.6 48.8 44 16.4 NNW | 337 21.6 NNW | 340 74.3 71.4
8/30/26 - 0500 71.8 49.0 44 17.1 NNW | 341 23.2 NNW | 348 74.3 71.6
8/30/26 - 0450 72.1 49.2 44 17.7 NNW | 341 25.8 NNW | 339 74.3 71.7
8/30/26 - 0440 71.9 49.2 45 18.9 NNW | 338 26.0 NNW | 341 74.3 71.7
8/30/26 - 0430 71.8 49.1 44 19.9 NNW | 334 25.7 NNW | 336 74.3 71.7
8/30/26 - 0420 72.0 49.0 44 20.4 NNW | 335 25.8 NNW | 340 74.3 71.9
8/30/26 - 0410 72.2 49.0 44 20.7 NNW | 333 27.2 NW | 314 74.3 72.0
8/30/26 - 0400 72.2 48.8 44 20.5 NNW | 332 28.8 NNW | 338 74.3 72.0
8/30/26 - 0350 72.1 48.7 43 20.2 NNW | 331 27.1 NW | 325 74.3 72.0
8/30/26 - 0340 72.2 48.5 43 19.6 NNW | 333 25.5 NNW | 334 74.3 72.1
8/30/26 - 0330 72.2 48.4 43 19.2 NNW | 333 27.6 NW | 325 74.3 72.1
8/30/26 - 0320 72.5 48.5 42 18.9 NNW | 334 25.6 NNW | 336 74.3 72.3
8/30/26 - 0310 72.5 48.6 43 19.3 NNW | 338 25.6 NNW | 336 74.3 72.3
8/30/26 - 0300 72.5 49.0 43 19.0 NNW | 336 26.2 NNW | 346 74.3 72.3
8/30/26 - 0250 72.5 49.6 44 19.5 NNW | 335 25.9 NNW | 339 74.3 72.4
8/30/26 - 0240 72.8 49.7 44 19.0 NNW | 339 27.6 NNW | 327 74.3 72.4
8/30/26 - 0230 72.7 49.7 44 18.4 NNW | 337 25.9 NNW | 332 74.3 72.5
8/30/26 - 0220 72.7 49.7 44 17.8 NNW | 340 25.4 NNW | 339 74.3 72.5
8/30/26 - 0210 73.0 49.5 43 16.8 NNW | 339 22.6 NNW | 337 74.3 72.7
8/30/26 - 0200 73.6 49.3 42 16.5 NNW | 338 24.4 N | 350 74.3 73.2
8/30/26 - 0150 73.8 49.0 42 15.8 NNW | 335 22.4 NNW | 335 74.3 73.6
8/30/26 - 0140 73.9 49.0 41 13.7 NNW | 334 19.1 NNW | 333 74.3 73.6
8/30/26 - 0130 73.7 48.9 41 12.8 NNW | 333 20.1 NNW | 328 74.3 73.6
8/30/26 - 0120 73.8 49.2 42 12.0 NNW | 335 18.6 NNW | 327 74.3 73.6
8/30/26 - 0110 74.1 49.4 42 12.5 NNW | 340 16.7 NNW | 346 74.3 73.9
8/30/26 - 0100 74.4 49.6 42 13.5 NNW | 340 18.3 NNW | 338 91.3 73.9
8/30/26 - 0050 74.4 49.8 42 14.2 NNW | 340 20.8 NNW | 339 91.3 73.9
8/30/26 - 0040 74.3 50.2 43 14.8 NNW | 343 20.3 NNW | 347 91.3 73.9
8/30/26 - 0030 74.2 50.3 43 14.9 NNW | 344 20.2 NNW | 348 91.3 73.9
8/30/26 - 0020 74.0 50.0 43 13.6 NNW | 342 19.2 NNW | 338 91.3 73.9
8/30/26 - 0010 74.5 50.1 42 14.3 NNW | 338 20.0 NNW | 336 91.3 74.2
8/30/26 - 0000 74.5 50.2 42 14.9 NNW | 339 21.0 NNW | 346 91.3 74.4
8/29/26 - 2350 74.6 50.3 43 16.0 NNW | 337 22.9 NNW | 340 91.3 74.4
8/29/26 - 2340 74.5 50.5 43 15.6 NNW | 337 24.6 NNW | 333 91.3 74.4
8/29/26 - 2330 74.9 50.6 42 16.1 NNW | 340 22.1 NNW | 336 91.3 74.6
8/29/26 - 2320 75.2 50.8 42 15.8 NNW | 340 22.1 NNW | 335 91.3 75.0
8/29/26 - 2310 75.7 51.0 42 17.4 NNW | 337 24.6 NNW | 330 91.3 75.3
8/29/26 - 2300 76.0 51.1 42 19.2 NNW | 335 24.7 NNW | 339 91.3 75.3
8/29/26 - 2250 75.6 51.2 42 16.7 NNW | 335 25.2 NNW | 330 91.3 75.3
Max 87.0 54.4 45 22.7 - 31.6 - 91.3 75.3
Avg 77.9 47.0 34 14.0 - 21.0 - - -
Min 71.6 38.7 24 2.5 - 7.7 - 74.3 71.4